sensor_id;sensor_type;location;lat;lon;timestamp;P1;durP1;ratioP1;P2;durP2;ratioP2
32505;SDS011;18955;51.224;8.482;2023-03-04T00:02:03;9.40;;;6.30;;
32505;SDS011;18955;51.224;8.482;2023-03-04T00:04:30;8.90;;;6.13;;
32505;SDS011;18955;51.224;8.482;2023-03-04T00:06:56;10.25;;;6.00;;
32505;SDS011;18955;51.224;8.482;2023-03-04T00:09:22;15.60;;;8.40;;
32505;SDS011;18955;51.224;8.482;2023-03-04T00:11:48;10.45;;;6.00;;
32505;SDS011;18955;51.224;8.482;2023-03-04T00:14:14;9.20;;;5.25;;
32505;SDS011;18955;51.224;8.482;2023-03-04T00:16:41;9.07;;;5.95;;
32505;SDS011;18955;51.224;8.482;2023-03-04T00:19:07;9.63;;;7.10;;
32505;SDS011;18955;51.224;8.482;2023-03-04T00:21:34;10.90;;;7.10;;
32505;SDS011;18955;51.224;8.482;2023-03-04T00:24:00;11.80;;;7.15;;
32505;SDS011;18955;51.224;8.482;2023-03-04T00:26:27;16.15;;;7.55;;
32505;SDS011;18955;51.224;8.482;2023-03-04T00:28:53;11.85;;;6.35;;
32505;SDS011;18955;51.224;8.482;2023-03-04T00:31:19;14.00;;;6.60;;
32505;SDS011;18955;51.224;8.482;2023-03-04T00:33:45;8.38;;;4.72;;
32505;SDS011;18955;51.224;8.482;2023-03-04T00:36:11;14.90;;;5.88;;
32505;SDS011;18955;51.224;8.482;2023-03-04T00:38:38;13.25;;;5.47;;
32505;SDS011;18955;51.224;8.482;2023-03-04T00:41:04;15.02;;;5.43;;
32505;SDS011;18955;51.224;8.482;2023-03-04T00:43:30;10.23;;;6.40;;
32505;SDS011;18955;51.224;8.482;2023-03-04T00:45:57;13.93;;;5.97;;
32505;SDS011;18955;51.224;8.482;2023-03-04T00:48:24;15.00;;;6.20;;
32505;SDS011;18955;51.224;8.482;2023-03-04T00:50:50;6.32;;;4.13;;
32505;SDS011;18955;51.224;8.482;2023-03-04T00:53:19;15.88;;;6.57;;
32505;SDS011;18955;51.224;8.482;2023-03-04T00:55:46;12.73;;;5.85;;
32505;SDS011;18955;51.224;8.482;2023-03-04T00:58:12;16.50;;;6.43;;
32505;SDS011;18955;51.224;8.482;2023-03-04T01:00:38;9.43;;;5.15;;
32505;SDS011;18955;51.224;8.482;2023-03-04T01:03:04;9.90;;;4.82;;
32505;SDS011;18955;51.224;8.482;2023-03-04T01:05:30;8.88;;;4.53;;
32505;SDS011;18955;51.224;8.482;2023-03-04T01:07:59;14.73;;;7.00;;
32505;SDS011;18955;51.224;8.482;2023-03-04T01:10:26;15.30;;;6.22;;
32505;SDS011;18955;51.224;8.482;2023-03-04T01:12:53;15.43;;;6.85;;
32505;SDS011;18955;51.224;8.482;2023-03-04T01:15:19;9.65;;;4.85;;
32505;SDS011;18955;51.224;8.482;2023-03-04T01:17:45;13.52;;;6.80;;
32505;SDS011;18955;51.224;8.482;2023-03-04T01:20:14;14.40;;;6.63;;
32505;SDS011;18955;51.224;8.482;2023-03-04T01:25:07;20.45;;;9.43;;
32505;SDS011;18955;51.224;8.482;2023-03-04T01:27:33;15.65;;;7.05;;
32505;SDS011;18955;51.224;8.482;2023-03-04T01:29:59;16.40;;;7.35;;
32505;SDS011;18955;51.224;8.482;2023-03-04T01:32:28;21.58;;;8.10;;
32505;SDS011;18955;51.224;8.482;2023-03-04T01:34:54;17.80;;;8.25;;
32505;SDS011;18955;51.224;8.482;2023-03-04T01:37:20;14.38;;;5.50;;
32505;SDS011;18955;51.224;8.482;2023-03-04T01:39:46;15.77;;;7.78;;
32505;SDS011;18955;51.224;8.482;2023-03-04T01:42:17;23.98;;;8.55;;
32505;SDS011;18955;51.224;8.482;2023-03-04T01:44:47;22.85;;;7.95;;
32505;SDS011;18955;51.224;8.482;2023-03-04T01:47:15;14.65;;;7.75;;
32505;SDS011;18955;51.224;8.482;2023-03-04T01:49:42;19.42;;;8.48;;
32505;SDS011;18955;51.224;8.482;2023-03-04T01:52:10;20.27;;;8.07;;
32505;SDS011;18955;51.224;8.482;2023-03-04T01:54:39;20.55;;;8.30;;
32505;SDS011;18955;51.224;8.482;2023-03-04T01:57:16;17.67;;;8.18;;
32505;SDS011;18955;51.224;8.482;2023-03-04T02:02:10;21.55;;;8.27;;
32505;SDS011;18955;51.224;8.482;2023-03-04T02:04:37;15.90;;;7.78;;
32505;SDS011;18955;51.224;8.482;2023-03-04T02:07:04;18.23;;;9.32;;
32505;SDS011;18955;51.224;8.482;2023-03-04T02:09:32;19.25;;;8.40;;
32505;SDS011;18955;51.224;8.482;2023-03-04T02:12:00;15.82;;;8.20;;
32505;SDS011;18955;51.224;8.482;2023-03-04T02:14:27;18.50;;;7.68;;
32505;SDS011;18955;51.224;8.482;2023-03-04T02:16:54;27.83;;;8.20;;
32505;SDS011;18955;51.224;8.482;2023-03-04T02:21:53;11.60;;;6.72;;
32505;SDS011;18955;51.224;8.482;2023-03-04T02:24:42;19.10;;;7.30;;
32505;SDS011;18955;51.224;8.482;2023-03-04T02:27:06;21.23;;;7.03;;
32505;SDS011;18955;51.224;8.482;2023-03-04T02:29:33;20.30;;;6.65;;
32505;SDS011;18955;51.224;8.482;2023-03-04T02:32:01;18.98;;;6.10;;
32505;SDS011;18955;51.224;8.482;2023-03-04T02:37:00;21.42;;;6.65;;
32505;SDS011;18955;51.224;8.482;2023-03-04T02:39:31;17.75;;;5.78;;
32505;SDS011;18955;51.224;8.482;2023-03-04T02:42:10;26.75;;;6.75;;
32505;SDS011;18955;51.224;8.482;2023-03-04T02:44:38;23.95;;;6.20;;
32505;SDS011;18955;51.224;8.482;2023-03-04T02:47:12;23.20;;;6.55;;
32505;SDS011;18955;51.224;8.482;2023-03-04T02:49:39;20.90;;;6.00;;
32505;SDS011;18955;51.224;8.482;2023-03-04T02:52:12;18.50;;;6.03;;
32505;SDS011;18955;51.224;8.482;2023-03-04T02:54:43;23.70;;;6.13;;
32505;SDS011;18955;51.224;8.482;2023-03-04T02:57:10;19.35;;;5.95;;
32505;SDS011;18955;51.224;8.482;2023-03-04T02:59:40;25.75;;;6.70;;
32505;SDS011;18955;51.224;8.482;2023-03-04T03:02:09;22.58;;;6.25;;
32505;SDS011;18955;51.224;8.482;2023-03-04T03:04:37;32.78;;;6.00;;
32505;SDS011;18955;51.224;8.482;2023-03-04T03:07:08;19.73;;;5.43;;
32505;SDS011;18955;51.224;8.482;2023-03-04T03:12:01;20.83;;;5.90;;
32505;SDS011;18955;51.224;8.482;2023-03-04T03:14:29;25.08;;;6.07;;
32505;SDS011;18955;51.224;8.482;2023-03-04T03:16:56;23.27;;;5.63;;
32505;SDS011;18955;51.224;8.482;2023-03-04T03:19:22;18.55;;;5.47;;
32505;SDS011;18955;51.224;8.482;2023-03-04T03:21:50;25.88;;;5.93;;
32505;SDS011;18955;51.224;8.482;2023-03-04T03:24:16;23.35;;;5.22;;
32505;SDS011;18955;51.224;8.482;2023-03-04T03:26:44;20.60;;;5.82;;
32505;SDS011;18955;51.224;8.482;2023-03-04T03:29:10;21.88;;;5.22;;
32505;SDS011;18955;51.224;8.482;2023-03-04T03:31:37;18.23;;;5.43;;
32505;SDS011;18955;51.224;8.482;2023-03-04T03:34:03;14.40;;;4.43;;
32505;SDS011;18955;51.224;8.482;2023-03-04T03:36:29;19.83;;;5.50;;
32505;SDS011;18955;51.224;8.482;2023-03-04T03:38:55;17.75;;;4.25;;
32505;SDS011;18955;51.224;8.482;2023-03-04T03:41:22;29.40;;;5.45;;
32505;SDS011;18955;51.224;8.482;2023-03-04T03:43:48;21.48;;;5.75;;
32505;SDS011;18955;51.224;8.482;2023-03-04T03:46:14;13.57;;;3.63;;
32505;SDS011;18955;51.224;8.482;2023-03-04T03:48:40;21.02;;;5.15;;
32505;SDS011;18955;51.224;8.482;2023-03-04T03:51:06;29.70;;;6.03;;
32505;SDS011;18955;51.224;8.482;2023-03-04T03:53:33;20.45;;;6.10;;
32505;SDS011;18955;51.224;8.482;2023-03-04T03:55:59;22.52;;;4.20;;
32505;SDS011;18955;51.224;8.482;2023-03-04T03:58:25;30.90;;;5.97;;
32505;SDS011;18955;51.224;8.482;2023-03-04T04:00:51;26.65;;;5.18;;
32505;SDS011;18955;51.224;8.482;2023-03-04T04:03:17;21.63;;;4.97;;
32505;SDS011;18955;51.224;8.482;2023-03-04T04:05:44;21.70;;;5.60;;
32505;SDS011;18955;51.224;8.482;2023-03-04T04:08:14;23.10;;;5.35;;
32505;SDS011;18955;51.224;8.482;2023-03-04T04:10:41;20.25;;;5.40;;
32505;SDS011;18955;51.224;8.482;2023-03-04T04:15:34;18.27;;;5.43;;
32505;SDS011;18955;51.224;8.482;2023-03-04T04:18:03;25.65;;;5.75;;
32505;SDS011;18955;51.224;8.482;2023-03-04T04:20:30;20.27;;;4.80;;
32505;SDS011;18955;51.224;8.482;2023-03-04T04:22:56;20.73;;;5.00;;
32505;SDS011;18955;51.224;8.482;2023-03-04T04:25:23;21.38;;;5.18;;
32505;SDS011;18955;51.224;8.482;2023-03-04T04:27:49;26.90;;;6.47;;
32505;SDS011;18955;51.224;8.482;2023-03-04T04:30:15;21.05;;;5.40;;
32505;SDS011;18955;51.224;8.482;2023-03-04T04:32:41;15.45;;;4.20;;
32505;SDS011;18955;51.224;8.482;2023-03-04T04:35:08;26.38;;;5.80;;
32505;SDS011;18955;51.224;8.482;2023-03-04T04:37:34;22.08;;;5.13;;
32505;SDS011;18955;51.224;8.482;2023-03-04T04:40:00;21.65;;;4.60;;
32505;SDS011;18955;51.224;8.482;2023-03-04T04:42:27;24.83;;;5.25;;
32505;SDS011;18955;51.224;8.482;2023-03-04T04:44:53;17.60;;;4.30;;
32505;SDS011;18955;51.224;8.482;2023-03-04T04:47:19;22.55;;;5.40;;
32505;SDS011;18955;51.224;8.482;2023-03-04T04:49:46;20.40;;;4.97;;
32505;SDS011;18955;51.224;8.482;2023-03-04T04:52:12;27.35;;;5.93;;
32505;SDS011;18955;51.224;8.482;2023-03-04T04:54:38;21.35;;;5.45;;
32505;SDS011;18955;51.224;8.482;2023-03-04T04:57:04;25.10;;;5.25;;
32505;SDS011;18955;51.224;8.482;2023-03-04T04:59:30;24.10;;;4.90;;
32505;SDS011;18955;51.224;8.482;2023-03-04T05:01:57;28.20;;;5.53;;
32505;SDS011;18955;51.224;8.482;2023-03-04T05:04:23;29.10;;;4.68;;
32505;SDS011;18955;51.224;8.482;2023-03-04T05:06:49;25.58;;;4.93;;
32505;SDS011;18955;51.224;8.482;2023-03-04T05:09:15;21.48;;;4.15;;
32505;SDS011;18955;51.224;8.482;2023-03-04T05:11:41;20.92;;;5.45;;
32505;SDS011;18955;51.224;8.482;2023-03-04T05:14:08;22.95;;;5.30;;
32505;SDS011;18955;51.224;8.482;2023-03-04T05:16:34;17.08;;;3.80;;
32505;SDS011;18955;51.224;8.482;2023-03-04T05:19:00;24.63;;;4.75;;
32505;SDS011;18955;51.224;8.482;2023-03-04T05:21:26;15.07;;;3.30;;
32505;SDS011;18955;51.224;8.482;2023-03-04T05:23:52;11.68;;;3.72;;
32505;SDS011;18955;51.224;8.482;2023-03-04T05:26:19;25.60;;;5.05;;
32505;SDS011;18955;51.224;8.482;2023-03-04T05:28:45;18.02;;;4.38;;
32505;SDS011;18955;51.224;8.482;2023-03-04T05:31:11;18.65;;;4.30;;
32505;SDS011;18955;51.224;8.482;2023-03-04T05:33:37;23.63;;;5.05;;
32505;SDS011;18955;51.224;8.482;2023-03-04T05:36:04;23.13;;;4.53;;
32505;SDS011;18955;51.224;8.482;2023-03-04T05:38:32;18.23;;;4.18;;
32505;SDS011;18955;51.224;8.482;2023-03-04T05:40:59;20.40;;;4.65;;
32505;SDS011;18955;51.224;8.482;2023-03-04T05:43:27;17.90;;;4.22;;
32505;SDS011;18955;51.224;8.482;2023-03-04T05:45:54;16.52;;;3.95;;
32505;SDS011;18955;51.224;8.482;2023-03-04T05:48:20;29.77;;;4.38;;
32505;SDS011;18955;51.224;8.482;2023-03-04T05:50:52;12.10;;;3.78;;
32505;SDS011;18955;51.224;8.482;2023-03-04T05:53:19;15.95;;;4.00;;
32505;SDS011;18955;51.224;8.482;2023-03-04T05:55:45;10.85;;;3.70;;
32505;SDS011;18955;51.224;8.482;2023-03-04T05:58:12;13.20;;;3.30;;
32505;SDS011;18955;51.224;8.482;2023-03-04T06:00:39;22.38;;;6.07;;
32505;SDS011;18955;51.224;8.482;2023-03-04T06:03:05;13.15;;;4.22;;
32505;SDS011;18955;51.224;8.482;2023-03-04T06:05:32;16.70;;;3.63;;
32505;SDS011;18955;51.224;8.482;2023-03-04T06:07:58;17.40;;;3.03;;
32505;SDS011;18955;51.224;8.482;2023-03-04T06:10:24;18.45;;;3.15;;
32505;SDS011;18955;51.224;8.482;2023-03-04T06:12:50;15.73;;;3.25;;
32505;SDS011;18955;51.224;8.482;2023-03-04T06:15:17;18.65;;;3.42;;
32505;SDS011;18955;51.224;8.482;2023-03-04T06:17:43;15.13;;;2.38;;
32505;SDS011;18955;51.224;8.482;2023-03-04T06:20:09;17.02;;;3.95;;
32505;SDS011;18955;51.224;8.482;2023-03-04T06:22:36;16.83;;;3.67;;
32505;SDS011;18955;51.224;8.482;2023-03-04T06:25:03;11.93;;;2.80;;
32505;SDS011;18955;51.224;8.482;2023-03-04T06:27:29;15.88;;;3.65;;
32505;SDS011;18955;51.224;8.482;2023-03-04T06:29:56;19.35;;;3.17;;
32505;SDS011;18955;51.224;8.482;2023-03-04T06:32:22;17.48;;;3.42;;
32505;SDS011;18955;51.224;8.482;2023-03-04T06:34:48;19.95;;;3.28;;
32505;SDS011;18955;51.224;8.482;2023-03-04T06:37:14;18.02;;;3.95;;
32505;SDS011;18955;51.224;8.482;2023-03-04T06:39:41;10.40;;;2.65;;
32505;SDS011;18955;51.224;8.482;2023-03-04T06:42:07;20.15;;;4.38;;
32505;SDS011;18955;51.224;8.482;2023-03-04T06:44:33;18.55;;;3.80;;
32505;SDS011;18955;51.224;8.482;2023-03-04T06:46:59;17.30;;;3.30;;
32505;SDS011;18955;51.224;8.482;2023-03-04T06:49:25;11.23;;;2.60;;
32505;SDS011;18955;51.224;8.482;2023-03-04T06:51:52;20.63;;;4.10;;
32505;SDS011;18955;51.224;8.482;2023-03-04T06:54:18;9.30;;;2.25;;
32505;SDS011;18955;51.224;8.482;2023-03-04T06:56:44;12.77;;;2.95;;
32505;SDS011;18955;51.224;8.482;2023-03-04T06:59:11;13.95;;;2.35;;
32505;SDS011;18955;51.224;8.482;2023-03-04T07:01:37;11.77;;;2.95;;
32505;SDS011;18955;51.224;8.482;2023-03-04T07:04:03;23.30;;;3.58;;
32505;SDS011;18955;51.224;8.482;2023-03-04T07:06:29;11.77;;;2.88;;
32505;SDS011;18955;51.224;8.482;2023-03-04T07:08:56;15.40;;;3.75;;
32505;SDS011;18955;51.224;8.482;2023-03-04T07:11:22;12.48;;;3.05;;
32505;SDS011;18955;51.224;8.482;2023-03-04T07:13:49;12.80;;;3.10;;
32505;SDS011;18955;51.224;8.482;2023-03-04T07:16:17;14.55;;;3.53;;
32505;SDS011;18955;51.224;8.482;2023-03-04T07:18:45;14.35;;;4.63;;
32505;SDS011;18955;51.224;8.482;2023-03-04T07:21:12;10.88;;;3.13;;
32505;SDS011;18955;51.224;8.482;2023-03-04T07:23:40;14.25;;;3.05;;
32505;SDS011;18955;51.224;8.482;2023-03-04T07:26:06;11.27;;;3.17;;
32505;SDS011;18955;51.224;8.482;2023-03-04T07:28:33;17.40;;;4.32;;
32505;SDS011;18955;51.224;8.482;2023-03-04T07:31:07;16.52;;;4.05;;
32505;SDS011;18955;51.224;8.482;2023-03-04T07:33:36;12.43;;;3.00;;
32505;SDS011;18955;51.224;8.482;2023-03-04T07:36:03;14.32;;;2.63;;
32505;SDS011;18955;51.224;8.482;2023-03-04T07:38:29;18.73;;;2.75;;
32505;SDS011;18955;51.224;8.482;2023-03-04T07:40:56;6.47;;;2.60;;
32505;SDS011;18955;51.224;8.482;2023-03-04T07:43:23;11.95;;;2.67;;
32505;SDS011;18955;51.224;8.482;2023-03-04T07:45:50;11.57;;;2.55;;
32505;SDS011;18955;51.224;8.482;2023-03-04T07:48:16;5.70;;;1.80;;
32505;SDS011;18955;51.224;8.482;2023-03-04T07:50:42;8.00;;;1.98;;
32505;SDS011;18955;51.224;8.482;2023-03-04T07:53:08;7.07;;;2.08;;
32505;SDS011;18955;51.224;8.482;2023-03-04T07:55:35;8.65;;;1.33;;
32505;SDS011;18955;51.224;8.482;2023-03-04T07:58:01;6.03;;;2.13;;
32505;SDS011;18955;51.224;8.482;2023-03-04T08:00:27;9.18;;;2.08;;
32505;SDS011;18955;51.224;8.482;2023-03-04T08:02:53;8.80;;;2.20;;
32505;SDS011;18955;51.224;8.482;2023-03-04T08:05:20;7.88;;;1.52;;
32505;SDS011;18955;51.224;8.482;2023-03-04T08:07:46;7.93;;;1.77;;
32505;SDS011;18955;51.224;8.482;2023-03-04T08:10:12;12.55;;;2.33;;
32505;SDS011;18955;51.224;8.482;2023-03-04T08:12:38;9.18;;;2.55;;
32505;SDS011;18955;51.224;8.482;2023-03-04T08:15:05;7.32;;;2.05;;
32505;SDS011;18955;51.224;8.482;2023-03-04T08:19:57;6.95;;;2.15;;
32505;SDS011;18955;51.224;8.482;2023-03-04T08:22:24;9.15;;;2.20;;
32505;SDS011;18955;51.224;8.482;2023-03-04T08:24:50;9.30;;;2.78;;
32505;SDS011;18955;51.224;8.482;2023-03-04T08:27:16;7.05;;;1.88;;
32505;SDS011;18955;51.224;8.482;2023-03-04T08:29:43;5.97;;;2.05;;
32505;SDS011;18955;51.224;8.482;2023-03-04T08:32:09;8.82;;;1.67;;
32505;SDS011;18955;51.224;8.482;2023-03-04T08:34:35;7.22;;;1.65;;
32505;SDS011;18955;51.224;8.482;2023-03-04T08:37:05;8.60;;;1.92;;
32505;SDS011;18955;51.224;8.482;2023-03-04T08:39:31;9.75;;;1.63;;
32505;SDS011;18955;51.224;8.482;2023-03-04T08:42:00;8.15;;;1.73;;
32505;SDS011;18955;51.224;8.482;2023-03-04T08:44:27;9.90;;;1.63;;
32505;SDS011;18955;51.224;8.482;2023-03-04T08:46:54;9.00;;;2.00;;
32505;SDS011;18955;51.224;8.482;2023-03-04T08:49:20;10.02;;;1.90;;
32505;SDS011;18955;51.224;8.482;2023-03-04T08:51:46;11.77;;;2.08;;
32505;SDS011;18955;51.224;8.482;2023-03-04T08:54:12;4.82;;;1.85;;
32505;SDS011;18955;51.224;8.482;2023-03-04T08:56:40;7.20;;;1.98;;
32505;SDS011;18955;51.224;8.482;2023-03-04T08:59:06;6.18;;;1.90;;
32505;SDS011;18955;51.224;8.482;2023-03-04T09:01:32;4.35;;;1.27;;
32505;SDS011;18955;51.224;8.482;2023-03-04T09:03:59;5.43;;;1.85;;
32505;SDS011;18955;51.224;8.482;2023-03-04T09:06:25;4.72;;;1.25;;
32505;SDS011;18955;51.224;8.482;2023-03-04T09:08:51;2.45;;;1.20;;
32505;SDS011;18955;51.224;8.482;2023-03-04T09:11:17;6.18;;;1.70;;
32505;SDS011;18955;51.224;8.482;2023-03-04T09:13:44;3.90;;;1.70;;
32505;SDS011;18955;51.224;8.482;2023-03-04T09:16:10;2.70;;;1.25;;
32505;SDS011;18955;51.224;8.482;2023-03-04T09:18:38;4.82;;;1.35;;
32505;SDS011;18955;51.224;8.482;2023-03-04T09:21:06;5.72;;;1.73;;
32505;SDS011;18955;51.224;8.482;2023-03-04T09:23:33;5.38;;;1.60;;
32505;SDS011;18955;51.224;8.482;2023-03-04T09:28:25;7.15;;;1.67;;
32505;SDS011;18955;51.224;8.482;2023-03-04T09:30:52;6.47;;;1.48;;
32505;SDS011;18955;51.224;8.482;2023-03-04T09:33:18;6.28;;;2.20;;
32505;SDS011;18955;51.224;8.482;2023-03-04T09:35:44;5.43;;;1.70;;
32505;SDS011;18955;51.224;8.482;2023-03-04T09:38:13;6.40;;;2.35;;
32505;SDS011;18955;51.224;8.482;2023-03-04T09:40:46;5.97;;;2.78;;
32505;SDS011;18955;51.224;8.482;2023-03-04T09:43:23;7.15;;;2.58;;
32505;SDS011;18955;51.224;8.482;2023-03-04T09:45:58;6.35;;;2.75;;
32505;SDS011;18955;51.224;8.482;2023-03-04T09:48:28;7.20;;;2.63;;
32505;SDS011;18955;51.224;8.482;2023-03-04T09:56:13;6.75;;;2.72;;
32505;SDS011;18955;51.224;8.482;2023-03-04T10:01:29;6.35;;;2.20;;
32505;SDS011;18955;51.224;8.482;2023-03-04T10:06:39;6.03;;;2.65;;
32505;SDS011;18955;51.224;8.482;2023-03-04T10:09:13;5.00;;;2.70;;
32505;SDS011;18955;51.224;8.482;2023-03-04T10:11:45;5.93;;;2.80;;
32505;SDS011;18955;51.224;8.482;2023-03-04T10:14:34;6.50;;;3.13;;
32505;SDS011;18955;51.224;8.482;2023-03-04T10:19:56;6.25;;;3.30;;
32505;SDS011;18955;51.224;8.482;2023-03-04T10:22:33;7.15;;;3.05;;
32505;SDS011;18955;51.224;8.482;2023-03-04T10:25:13;4.55;;;2.47;;
32505;SDS011;18955;51.224;8.482;2023-03-04T10:27:54;3.78;;;2.30;;
32505;SDS011;18955;51.224;8.482;2023-03-04T10:33:28;3.47;;;2.37;;
32505;SDS011;18955;51.224;8.482;2023-03-04T10:38:33;5.07;;;2.50;;
32505;SDS011;18955;51.224;8.482;2023-03-04T10:41:09;6.22;;;2.60;;
32505;SDS011;18955;51.224;8.482;2023-03-04T10:43:37;4.50;;;3.17;;
32505;SDS011;18955;51.224;8.482;2023-03-04T10:46:04;5.90;;;2.85;;
32505;SDS011;18955;51.224;8.482;2023-03-04T10:48:30;4.32;;;2.92;;
32505;SDS011;18955;51.224;8.482;2023-03-04T10:51:10;6.22;;;2.92;;
32505;SDS011;18955;51.224;8.482;2023-03-04T10:53:40;3.72;;;2.15;;
32505;SDS011;18955;51.224;8.482;2023-03-04T10:56:30;5.75;;;2.75;;
32505;SDS011;18955;51.224;8.482;2023-03-04T10:59:27;2.90;;;2.30;;
32505;SDS011;18955;51.224;8.482;2023-03-04T11:05:10;3.88;;;2.17;;
32505;SDS011;18955;51.224;8.482;2023-03-04T11:07:48;3.90;;;2.45;;
32505;SDS011;18955;51.224;8.482;2023-03-04T11:10:19;3.50;;;2.22;;
32505;SDS011;18955;51.224;8.482;2023-03-04T11:15:21;5.40;;;2.50;;
32505;SDS011;18955;51.224;8.482;2023-03-04T11:17:56;3.13;;;1.70;;
32505;SDS011;18955;51.224;8.482;2023-03-04T11:20:35;3.97;;;2.22;;
32505;SDS011;18955;51.224;8.482;2023-03-04T11:23:11;3.60;;;2.35;;
32505;SDS011;18955;51.224;8.482;2023-03-04T11:26:02;2.83;;;2.25;;
32505;SDS011;18955;51.224;8.482;2023-03-04T11:31:25;2.92;;;1.95;;
32505;SDS011;18955;51.224;8.482;2023-03-04T11:34:00;2.10;;;1.90;;
32505;SDS011;18955;51.224;8.482;2023-03-04T11:44:45;2.85;;;2.13;;
32505;SDS011;18955;51.224;8.482;2023-03-04T11:55:39;3.35;;;1.85;;
32505;SDS011;18955;51.224;8.482;2023-03-04T12:01:09;2.90;;;2.10;;
32505;SDS011;18955;51.224;8.482;2023-03-04T12:03:43;2.75;;;2.40;;
32505;SDS011;18955;51.224;8.482;2023-03-04T12:06:34;2.70;;;2.15;;
32505;SDS011;18955;51.224;8.482;2023-03-04T12:31:37;2.28;;;1.70;;
32505;SDS011;18955;51.224;8.482;2023-03-04T12:51:04;1.48;;;1.15;;
32505;SDS011;18955;51.224;8.482;2023-03-04T12:57:34;1.95;;;1.33;;
32505;SDS011;18955;51.224;8.482;2023-03-04T13:10:40;2.72;;;1.58;;
32505;SDS011;18955;51.224;8.482;2023-03-04T13:13:32;4.93;;;1.75;;
32505;SDS011;18955;51.224;8.482;2023-03-04T13:16:50;2.63;;;1.58;;
32505;SDS011;18955;51.224;8.482;2023-03-04T13:18:57;1.85;;;1.52;;
32505;SDS011;18955;51.224;8.482;2023-03-04T13:21:24;2.55;;;1.88;;
32505;SDS011;18955;51.224;8.482;2023-03-04T13:24:39;2.90;;;2.22;;
32505;SDS011;18955;51.224;8.482;2023-03-04T13:43:46;3.63;;;2.60;;
32505;SDS011;18955;51.224;8.482;2023-03-04T13:51:25;9.85;;;2.92;;
32505;SDS011;18955;51.224;8.482;2023-03-04T13:53:52;3.78;;;2.83;;
32505;SDS011;18955;51.224;8.482;2023-03-04T13:58:47;4.45;;;3.22;;
32505;SDS011;18955;51.224;8.482;2023-03-04T14:01:29;7.03;;;4.60;;
32505;SDS011;18955;51.224;8.482;2023-03-04T14:03:58;5.93;;;4.20;;
32505;SDS011;18955;51.224;8.482;2023-03-04T14:08:51;5.13;;;3.53;;
32505;SDS011;18955;51.224;8.482;2023-03-04T14:13:50;5.50;;;3.70;;
32505;SDS011;18955;51.224;8.482;2023-03-04T14:22:16;2.20;;;1.90;;
32505;SDS011;18955;51.224;8.482;2023-03-04T14:24:58;3.78;;;2.58;;
32505;SDS011;18955;51.224;8.482;2023-03-04T14:27:34;5.93;;;3.38;;
32505;SDS011;18955;51.224;8.482;2023-03-04T14:30:03;11.35;;;4.85;;
32505;SDS011;18955;51.224;8.482;2023-03-04T14:32:31;10.25;;;5.00;;
32505;SDS011;18955;51.224;8.482;2023-03-04T14:35:01;3.58;;;2.72;;
32505;SDS011;18955;51.224;8.482;2023-03-04T14:37:33;3.15;;;2.00;;
32505;SDS011;18955;51.224;8.482;2023-03-04T14:40:22;3.00;;;1.98;;
32505;SDS011;18955;51.224;8.482;2023-03-04T14:42:54;2.65;;;1.85;;
32505;SDS011;18955;51.224;8.482;2023-03-04T14:45:24;2.72;;;2.08;;
32505;SDS011;18955;51.224;8.482;2023-03-04T14:47:51;2.60;;;2.20;;
32505;SDS011;18955;51.224;8.482;2023-03-04T14:50:19;2.65;;;2.00;;
32505;SDS011;18955;51.224;8.482;2023-03-04T14:52:49;2.25;;;1.73;;
32505;SDS011;18955;51.224;8.482;2023-03-04T14:55:28;2.33;;;1.60;;
32505;SDS011;18955;51.224;8.482;2023-03-04T14:58:51;2.78;;;2.13;;
32505;SDS011;18955;51.224;8.482;2023-03-04T15:00:45;2.22;;;1.80;;
32505;SDS011;18955;51.224;8.482;2023-03-04T15:05:41;2.47;;;2.00;;
32505;SDS011;18955;51.224;8.482;2023-03-04T15:08:19;2.50;;;1.85;;
32505;SDS011;18955;51.224;8.482;2023-03-04T15:10:56;2.88;;;1.70;;
32505;SDS011;18955;51.224;8.482;2023-03-04T15:16:12;1.77;;;1.60;;
32505;SDS011;18955;51.224;8.482;2023-03-04T15:21:28;3.63;;;1.42;;
32505;SDS011;18955;51.224;8.482;2023-03-04T15:23:54;5.38;;;1.40;;
32505;SDS011;18955;51.224;8.482;2023-03-04T15:26:20;2.17;;;1.30;;
32505;SDS011;18955;51.224;8.482;2023-03-04T15:28:47;5.28;;;1.92;;
32505;SDS011;18955;51.224;8.482;2023-03-04T15:31:14;2.88;;;1.40;;
32505;SDS011;18955;51.224;8.482;2023-03-04T15:33:42;6.35;;;1.50;;
32505;SDS011;18955;51.224;8.482;2023-03-04T15:36:11;2.92;;;1.33;;
32505;SDS011;18955;51.224;8.482;2023-03-04T15:38:40;2.05;;;0.95;;
32505;SDS011;18955;51.224;8.482;2023-03-04T15:41:10;3.30;;;2.15;;
32505;SDS011;18955;51.224;8.482;2023-03-04T15:43:39;5.00;;;1.60;;
32505;SDS011;18955;51.224;8.482;2023-03-04T15:46:05;7.70;;;1.70;;
32505;SDS011;18955;51.224;8.482;2023-03-04T15:48:33;5.95;;;1.95;;
32505;SDS011;18955;51.224;8.482;2023-03-04T15:51:00;4.63;;;1.67;;
32505;SDS011;18955;51.224;8.482;2023-03-04T15:53:37;8.30;;;1.42;;
32505;SDS011;18955;51.224;8.482;2023-03-04T15:56:14;4.28;;;1.42;;
32505;SDS011;18955;51.224;8.482;2023-03-04T15:59:08;4.25;;;1.30;;
32505;SDS011;18955;51.224;8.482;2023-03-04T16:01:36;9.63;;;1.73;;
32505;SDS011;18955;51.224;8.482;2023-03-04T16:04:02;4.22;;;1.60;;
32505;SDS011;18955;51.224;8.482;2023-03-04T16:06:29;7.18;;;1.52;;
32505;SDS011;18955;51.224;8.482;2023-03-04T16:08:57;5.20;;;1.50;;
32505;SDS011;18955;51.224;8.482;2023-03-04T16:11:25;6.20;;;1.80;;
32505;SDS011;18955;51.224;8.482;2023-03-04T16:13:53;5.13;;;1.33;;
32505;SDS011;18955;51.224;8.482;2023-03-04T16:16:19;9.77;;;1.42;;
32505;SDS011;18955;51.224;8.482;2023-03-04T16:18:45;5.10;;;1.80;;
32505;SDS011;18955;51.224;8.482;2023-03-04T16:21:19;5.68;;;1.42;;
32505;SDS011;18955;51.224;8.482;2023-03-04T16:23:48;4.78;;;1.50;;
32505;SDS011;18955;51.224;8.482;2023-03-04T16:26:19;9.00;;;1.48;;
32505;SDS011;18955;51.224;8.482;2023-03-04T16:28:46;7.15;;;1.60;;
32505;SDS011;18955;51.224;8.482;2023-03-04T16:33:40;5.25;;;1.67;;
32505;SDS011;18955;51.224;8.482;2023-03-04T16:36:25;6.22;;;1.35;;
32505;SDS011;18955;51.224;8.482;2023-03-04T16:38:55;5.65;;;1.77;;
32505;SDS011;18955;51.224;8.482;2023-03-04T16:41:26;6.47;;;1.55;;
32505;SDS011;18955;51.224;8.482;2023-03-04T16:43:57;4.32;;;1.70;;
32505;SDS011;18955;51.224;8.482;2023-03-04T16:46:24;10.73;;;1.63;;
32505;SDS011;18955;51.224;8.482;2023-03-04T16:48:51;5.03;;;1.38;;
32505;SDS011;18955;51.224;8.482;2023-03-04T16:51:18;5.72;;;1.60;;
32505;SDS011;18955;51.224;8.482;2023-03-04T16:53:47;10.70;;;2.13;;
32505;SDS011;18955;51.224;8.482;2023-03-04T16:56:21;9.95;;;2.35;;
32505;SDS011;18955;51.224;8.482;2023-03-04T16:58:48;6.55;;;1.60;;
32505;SDS011;18955;51.224;8.482;2023-03-04T17:03:43;6.03;;;2.05;;
32505;SDS011;18955;51.224;8.482;2023-03-04T17:06:10;7.88;;;1.83;;
32505;SDS011;18955;51.224;8.482;2023-03-04T17:08:36;12.55;;;2.08;;
32505;SDS011;18955;51.224;8.482;2023-03-04T17:13:29;8.95;;;2.05;;
32505;SDS011;18955;51.224;8.482;2023-03-04T17:18:27;10.20;;;2.00;;
32505;SDS011;18955;51.224;8.482;2023-03-04T17:20:59;9.50;;;1.55;;
32505;SDS011;18955;51.224;8.482;2023-03-04T17:23:27;8.60;;;1.65;;
32505;SDS011;18955;51.224;8.482;2023-03-04T17:25:55;14.90;;;2.10;;
32505;SDS011;18955;51.224;8.482;2023-03-04T17:28:22;11.65;;;2.13;;
32505;SDS011;18955;51.224;8.482;2023-03-04T17:33:15;9.13;;;1.80;;
32505;SDS011;18955;51.224;8.482;2023-03-04T17:35:41;12.05;;;2.25;;
32505;SDS011;18955;51.224;8.482;2023-03-04T17:38:09;8.93;;;1.48;;
32505;SDS011;18955;51.224;8.482;2023-03-04T17:40:36;8.95;;;1.92;;
32505;SDS011;18955;51.224;8.482;2023-03-04T17:43:04;11.35;;;2.20;;
32505;SDS011;18955;51.224;8.482;2023-03-04T17:45:39;13.95;;;3.15;;
32505;SDS011;18955;51.224;8.482;2023-03-04T17:48:07;4.82;;;1.40;;